Tinley Park, IL (60477)

11:40 CDT 30. Říjen 2014 (GMT -0500)
Chantilly | Change Station
CLOSE
Current Station
Osobní povětrnostní stanice
Location: Tinley Park, IL
Nadmořská výška: 709 ft
Poblíž povětrnostní stanice
Active Advisory: Lakeshore Flood Advisory

Výška 709 ft 41.58 °N, 87.82 °W | Updated 8 minutes ago

Skoro zataženo
Skoro zataženo
51.1 °F
Pocit jako 51.1 °F
S
0.0
Vítr proměnlivý Vítr od JJZ

Dnes
Vysoké -- | Nízké -- °F
--% Možnost srážek
Včera
Vysoké -- | Nízké -- °F
Precip. -- inčů
7:20 AM 5:48 PM
Dorůstající srpek, 45% visible
Tlak 30.14 inčů
Viditelnost 10.0 mílí
Zataženo Skoro zataženo 12000 ft
Rosný bod 38 °F
Vlhkost 61%
Dešťové srážky 0.00 inčů
Sněhová pokrývka Není k dispozici
UV záření 2 ze 12
Pyl .20 ze 12
Kvalita ovzduší Není k dispozici
Flu Activity Není k dispozici
METAR KIGQ 301635Z AUTO 21008KT 10SM BKN120 09/02 A3014 RMK AO2 T00920017

More Conditions Fewer Conditions

Tlak 30.14 inčů
Viditelnost 10.0 mílí
Zataženo Skoro zataženo 12000 ft
Rosný bod 38 °F
Vlhkost 61%
Dešťové srážky 0.00 inčů
Sněhová pokrývka Není k dispozici
UV záření 2 ze 12
Pyl .20 ze 12
Kvalita ovzduší Není k dispozici
Flu Activity Není k dispozici
METAR KIGQ 301635Z AUTO 21008KT 10SM BKN120 09/02 A3014 RMK AO2 T00920017

More Conditions Fewer Conditions

10-Day Weather Forecast

Almanac

Astronomie

Oct. 30, 2014 Východ Západ
Skutečný čas
Občanský soumrak
Námořní soumrak
Astronomický soumrak
Měsíc
Délka denního světla
Délka dne
Tomorrow will be .
, % of the Moon is Illuminated

Dnešní extrémy

State Highs State Lows

Community

WunderPhotos

Upload Photos

1,766,402 snímků staženo!

WunderBlogs® & News

Nearby

Kvalita ovzduší

  Kvalita ovzduší Index kvality ovzduší Polutant
Not available.

Výška sněhu

Station Hloubka Nadmořská výška

Seizmická činnost

Město Distance Mag. Čas & datum
Minimální zobrazený rozsah je 2.5.

Pobřežní teplota vody

Lokalita Teplota

Poblíž povětrnostní stanice